createdAt,value
2019-01-23T00:00:42.155Z,38.00
2019-01-23T00:03:09.332Z,37.70
2019-01-23T00:05:36.972Z,37.40
2019-01-23T00:08:04.749Z,37.50
2019-01-23T00:10:31.953Z,37.30
2019-01-23T00:12:59.035Z,37.30
2019-01-23T00:15:26.253Z,37.20
2019-01-23T00:17:53.460Z,37.00
2019-01-23T00:20:20.534Z,37.60
2019-01-23T00:22:47.739Z,37.90
2019-01-23T00:25:14.859Z,38.40
2019-01-23T00:27:42.012Z,38.40
2019-01-23T00:30:08.726Z,38.60
2019-01-23T00:32:35.905Z,38.00
2019-01-23T00:35:02.622Z,37.50
2019-01-23T00:37:29.690Z,36.90
2019-01-23T00:39:56.869Z,36.70
2019-01-23T00:42:23.993Z,36.90
2019-01-23T00:44:51.035Z,36.60
2019-01-23T00:47:17.756Z,36.60
2019-01-23T00:49:44.504Z,37.00
2019-01-23T00:52:11.669Z,37.30
2019-01-23T00:54:38.323Z,37.80
2019-01-23T00:57:05.455Z,37.90
2019-01-23T00:59:32.607Z,37.60
2019-01-23T01:01:59.255Z,37.10
2019-01-23T01:04:26.391Z,36.90
2019-01-23T01:06:53.162Z,36.60
2019-01-23T01:09:19.814Z,36.60
2019-01-23T01:11:46.948Z,36.70
2019-01-23T01:14:14.084Z,36.70
2019-01-23T01:16:41.258Z,37.20
2019-01-23T01:19:08.350Z,37.30
2019-01-23T01:21:35.419Z,37.20
2019-01-23T01:24:02.466Z,37.00
2019-01-23T01:26:29.191Z,36.80
2019-01-23T01:28:56.285Z,37.70
2019-01-23T01:31:23.407Z,36.50
2019-01-23T01:33:50.562Z,36.40
2019-01-23T01:36:17.241Z,37.10
2019-01-23T01:38:44.223Z,37.00
2019-01-23T01:41:11.271Z,37.10
2019-01-23T01:43:38.404Z,37.60
2019-01-23T01:46:05.599Z,38.70
2019-01-23T01:48:32.321Z,37.90
2019-01-23T01:50:59.029Z,37.60
2019-01-23T01:53:26.256Z,37.00
2019-01-23T01:55:52.966Z,36.80
2019-01-23T01:58:20.148Z,36.80
2019-01-23T02:00:46.932Z,37.10
2019-01-23T02:03:15.606Z,37.00
2019-01-23T02:05:42.386Z,36.90
2019-01-23T02:08:09.128Z,36.80
2019-01-23T02:10:35.846Z,37.50
2019-01-23T02:13:02.516Z,37.60
2019-01-23T02:15:29.322Z,37.10
2019-01-23T02:17:56.405Z,37.30
2019-01-23T02:20:23.430Z,37.60
2019-01-23T02:22:50.174Z,37.20
2019-01-23T02:25:17.214Z,37.00
2019-01-23T02:27:44.698Z,36.80
2019-01-23T02:30:11.414Z,37.00
2019-01-23T02:32:38.479Z,36.90
2019-01-23T02:35:05.205Z,37.10
2019-01-23T02:37:32.376Z,37.00
2019-01-23T02:39:59.430Z,37.20
2019-01-23T02:42:26.471Z,36.90
2019-01-23T02:44:54.132Z,36.80
2019-01-23T02:47:21.157Z,36.90
2019-01-23T02:49:47.859Z,36.80
2019-01-23T02:52:14.655Z,36.90
2019-01-23T02:54:41.467Z,37.50
2019-01-23T02:57:08.546Z,37.60
2019-01-23T02:59:35.709Z,37.40
2019-01-23T03:02:02.358Z,37.50
2019-01-23T03:04:29.494Z,37.50
2019-01-23T03:06:56.616Z,37.70
2019-01-23T03:09:23.694Z,38.10
2019-01-23T03:11:50.715Z,38.90
2019-01-23T03:14:17.916Z,38.30
2019-01-23T03:16:44.911Z,37.90
2019-01-23T03:19:11.610Z,37.70
2019-01-23T03:21:39.077Z,37.50
2019-01-23T03:24:06.217Z,37.20
2019-01-23T03:26:33.365Z,37.40
2019-01-23T03:29:00.566Z,37.10
2019-01-23T03:31:27.790Z,37.60
2019-01-23T03:33:54.440Z,38.10
2019-01-23T03:36:21.151Z,38.20
2019-01-23T03:38:47.923Z,38.00
2019-01-23T03:41:14.563Z,38.00
2019-01-23T03:43:41.640Z,38.00
2019-01-23T03:46:08.818Z,38.40
2019-01-23T03:48:35.497Z,38.00
2019-01-23T03:51:02.176Z,37.70
2019-01-23T03:53:28.973Z,37.50
2019-01-23T03:55:56.061Z,37.50
2019-01-23T03:58:22.714Z,37.20
2019-01-23T04:00:49.953Z,37.20
2019-01-23T04:03:17.767Z,37.20
2019-01-23T04:05:45.716Z,37.00
2019-01-23T04:08:12.455Z,37.20
2019-01-23T04:10:39.585Z,38.10
2019-01-23T04:13:06.601Z,38.70
2019-01-23T04:15:33.752Z,38.70
2019-01-23T04:18:00.820Z,38.90
2019-01-23T04:20:27.872Z,37.80
2019-01-23T04:22:55.023Z,37.90
2019-01-23T04:25:22.047Z,38.30
2019-01-23T04:27:50.689Z,38.30
2019-01-23T04:30:17.800Z,38.60
2019-01-23T04:32:44.827Z,37.40
2019-01-23T04:35:11.487Z,37.60
2019-01-23T04:37:38.620Z,37.80
2019-01-23T04:40:05.280Z,37.70
2019-01-23T04:42:32.021Z,37.80
2019-01-23T04:44:58.725Z,38.20
2019-01-23T04:47:25.817Z,37.80
2019-01-23T04:49:52.856Z,38.40
2019-01-23T04:52:19.982Z,38.10
2019-01-23T04:54:46.644Z,37.70
2019-01-23T04:57:13.712Z,36.90
2019-01-23T04:59:46.786Z,37.20
2019-01-23T05:02:09.213Z,37.90
2019-01-23T05:04:35.855Z,38.10
2019-01-23T05:07:03.034Z,37.70
2019-01-23T05:09:30.092Z,37.50
2019-01-23T05:11:56.742Z,37.50
2019-01-23T05:14:23.844Z,37.50
2019-01-23T05:16:51.017Z,37.10
2019-01-23T05:19:18.038Z,37.50
2019-01-23T05:21:44.734Z,37.50
2019-01-23T05:24:11.459Z,37.50
2019-01-23T05:26:38.565Z,37.40
2019-01-23T05:29:05.602Z,37.20
2019-01-23T05:31:32.296Z,37.40
2019-01-23T05:33:59.401Z,37.80
2019-01-23T05:36:26.117Z,37.90
2019-01-23T05:38:53.295Z,37.80
2019-01-23T05:41:20.366Z,38.10
2019-01-23T05:43:47.516Z,38.30
2019-01-23T05:46:14.675Z,38.10
2019-01-23T05:48:41.373Z,38.60
2019-01-23T05:51:08.436Z,38.50
2019-01-23T05:53:36.181Z,38.10
2019-01-23T05:56:03.255Z,37.90
2019-01-23T05:58:29.894Z,37.80
2019-01-23T06:00:57.935Z,37.60
2019-01-23T06:03:24.601Z,37.10
2019-01-23T06:05:51.747Z,37.30
2019-01-23T06:08:21.107Z,37.10
2019-01-23T06:10:47.299Z,37.00
2019-01-23T06:13:16.918Z,37.50
2019-01-23T06:15:43.916Z,38.30
2019-01-23T06:18:10.575Z,38.50
2019-01-23T06:20:37.717Z,38.10
2019-01-23T06:23:04.867Z,37.80
2019-01-23T06:25:32.039Z,37.50
2019-01-23T06:27:59.063Z,37.40
2019-01-23T06:30:26.117Z,37.60
2019-01-23T06:32:53.247Z,38.10
2019-01-23T06:35:20.314Z,38.00
2019-01-23T06:37:46.972Z,37.70
2019-01-23T06:40:14.105Z,38.50
2019-01-23T06:42:40.749Z,38.90
2019-01-23T06:45:07.404Z,38.60
2019-01-23T06:47:34.659Z,38.20
2019-01-23T06:50:01.330Z,38.50
2019-01-23T06:52:28.041Z,38.60
2019-01-23T06:54:54.779Z,38.20
2019-01-23T06:57:21.460Z,38.00
2019-01-23T06:59:48.540Z,38.00
2019-01-23T07:02:15.690Z,38.80
2019-01-23T07:04:42.365Z,39.50
2019-01-23T07:07:09.481Z,39.50
2019-01-23T07:09:36.159Z,39.40
2019-01-23T07:12:03.262Z,39.50
2019-01-23T07:14:30.039Z,39.70
2019-01-23T07:16:56.682Z,39.90
2019-01-23T07:19:23.804Z,40.30
2019-01-23T07:21:50.962Z,40.80
2019-01-23T07:24:18.108Z,40.60
2019-01-23T07:26:45.115Z,40.40
2019-01-23T07:29:12.289Z,40.00
2019-01-23T07:31:39.358Z,39.40
2019-01-23T07:34:06.067Z,38.90
2019-01-23T07:36:33.233Z,38.40
2019-01-23T07:38:59.953Z,38.30
2019-01-23T07:41:26.669Z,38.70
2019-01-23T07:43:53.418Z,38.90
2019-01-23T07:46:20.128Z,39.20
2019-01-23T07:48:47.234Z,39.10
2019-01-23T07:51:14.287Z,39.00
2019-01-23T07:53:41.466Z,39.20
2019-01-23T07:56:08.139Z,38.90
2019-01-23T07:58:34.803Z,38.90
2019-01-23T08:01:01.587Z,39.10
2019-01-23T08:03:28.597Z,38.90
2019-01-23T08:05:55.638Z,38.90
2019-01-23T08:08:22.350Z,38.80
2019-01-23T08:10:49.077Z,38.90
2019-01-23T08:13:16.179Z,38.90
2019-01-23T08:15:43.432Z,38.80
2019-01-23T08:18:10.490Z,38.10
2019-01-23T08:20:37.563Z,37.90
2019-01-23T08:23:04.263Z,37.50
2019-01-23T08:25:30.988Z,37.20
2019-01-23T08:27:57.664Z,37.20
2019-01-23T08:30:24.410Z,37.30
2019-01-23T08:32:51.110Z,37.90
2019-01-23T08:35:18.104Z,38.60
2019-01-23T08:37:45.109Z,38.90
2019-01-23T08:40:11.830Z,39.00
2019-01-23T08:42:38.581Z,39.70
2019-01-23T08:45:05.729Z,40.00
2019-01-23T08:47:32.800Z,39.50
2019-01-23T08:49:59.936Z,39.40
2019-01-23T08:52:27.028Z,39.10
2019-01-23T08:54:53.675Z,38.80
2019-01-23T08:57:20.418Z,38.90
2019-01-23T08:59:47.135Z,38.80
2019-01-23T09:02:14.141Z,38.30
2019-01-23T09:04:40.801Z,38.10
2019-01-23T09:07:07.858Z,38.00
2019-01-23T09:09:34.588Z,38.00
2019-01-23T09:12:01.352Z,38.20
2019-01-23T09:14:28.496Z,38.00
2019-01-23T09:16:55.227Z,37.90
2019-01-23T09:19:21.942Z,37.90
2019-01-23T09:21:49.151Z,38.10
2019-01-23T09:24:16.275Z,37.80
2019-01-23T09:26:43.452Z,37.00
2019-01-23T09:29:10.200Z,37.00
2019-01-23T09:31:37.326Z,37.10
2019-01-23T09:34:04.016Z,37.10
2019-01-23T09:36:31.158Z,37.10
2019-01-23T09:38:58.255Z,36.80
2019-01-23T09:41:25.446Z,36.80
2019-01-23T09:43:52.425Z,37.00
2019-01-23T09:46:19.494Z,37.20
2019-01-23T09:48:46.651Z,37.00
2019-01-23T09:51:13.722Z,37.00
2019-01-23T09:53:40.399Z,37.20
2019-01-23T09:56:07.503Z,37.00
2019-01-23T09:58:34.328Z,37.00
2019-01-23T10:01:01.031Z,37.40
2019-01-23T10:03:28.112Z,38.00
2019-01-23T10:05:55.143Z,38.10
2019-01-23T10:08:21.883Z,38.20
2019-01-23T10:10:48.957Z,38.00
2019-01-23T10:13:16.052Z,37.50
2019-01-23T10:15:46.542Z,37.30
2019-01-23T10:18:13.360Z,36.80
2019-01-23T10:20:40.440Z,36.90
2019-01-23T10:23:07.227Z,37.00
2019-01-23T10:25:33.922Z,37.90
2019-01-23T10:28:01.052Z,38.10
2019-01-23T10:30:27.829Z,38.40
2019-01-23T10:32:54.518Z,38.20
2019-01-23T10:35:21.579Z,38.00
2019-01-23T10:37:48.752Z,37.50
2019-01-23T10:40:15.783Z,37.10
2019-01-23T10:42:42.928Z,36.40
2019-01-23T10:45:10.105Z,36.50
2019-01-23T10:47:36.835Z,36.00
2019-01-23T10:50:03.549Z,36.30
2019-01-23T10:52:30.200Z,36.80
2019-01-23T10:54:59.069Z,37.30
2019-01-23T10:57:26.445Z,36.60
2019-01-23T10:59:53.613Z,36.10
2019-01-23T11:02:20.744Z,36.00
2019-01-23T11:04:47.391Z,36.10
2019-01-23T11:07:14.162Z,35.50
2019-01-23T11:09:41.276Z,35.30
2019-01-23T11:12:07.926Z,34.80
2019-01-23T11:14:34.653Z,35.00
2019-01-23T11:17:01.325Z,34.80
2019-01-23T11:19:27.979Z,35.00
2019-01-23T11:21:54.821Z,35.50
2019-01-23T11:24:21.917Z,35.80
2019-01-23T11:26:48.642Z,35.80
2019-01-23T11:29:15.366Z,35.70
2019-01-23T11:31:42.018Z,35.50
2019-01-23T11:34:09.174Z,35.70
2019-01-23T11:36:36.215Z,35.70
2019-01-23T11:39:03.289Z,36.00
2019-01-23T11:41:30.445Z,35.60
2019-01-23T11:43:57.570Z,35.80
2019-01-23T11:46:24.235Z,35.90
2019-01-23T11:48:50.961Z,35.80
2019-01-23T11:51:18.115Z,35.60
2019-01-23T11:53:45.164Z,35.80
2019-01-23T11:56:12.211Z,35.30
2019-01-23T11:58:39.359Z,35.50
2019-01-23T12:01:06.046Z,36.00
2019-01-23T12:03:33.154Z,36.20
2019-01-23T12:06:00.307Z,36.00
2019-01-23T12:08:27.019Z,35.90
2019-01-23T12:10:54.095Z,35.80
2019-01-23T12:13:21.242Z,35.60
2019-01-23T12:15:48.308Z,35.30
2019-01-23T12:18:14.962Z,35.80
2019-01-23T12:20:42.074Z,35.80
2019-01-23T12:23:09.126Z,35.80
2019-01-23T12:25:35.816Z,35.30
2019-01-23T12:28:03.061Z,35.30
2019-01-23T12:30:29.782Z,34.90
2019-01-23T12:32:56.931Z,34.90
2019-01-23T12:35:24.037Z,34.90
2019-01-23T12:37:51.208Z,34.80
2019-01-23T12:40:18.362Z,35.40
2019-01-23T12:42:45.095Z,35.10
2019-01-23T12:45:11.789Z,35.50
2019-01-23T12:47:38.908Z,35.60
2019-01-23T12:50:06.066Z,35.90
2019-01-23T12:52:32.712Z,36.10
2019-01-23T12:54:59.414Z,36.00
2019-01-23T12:57:26.122Z,36.10
2019-01-23T12:59:52.817Z,35.90
2019-01-23T13:02:19.509Z,36.30
2019-01-23T13:04:46.257Z,36.10
2019-01-23T13:07:13.357Z,35.70
2019-01-23T13:09:40.047Z,35.60
2019-01-23T13:12:06.843Z,35.10
2019-01-23T13:14:33.521Z,35.00
2019-01-23T13:17:00.595Z,35.40
2019-01-23T13:19:27.744Z,36.10
2019-01-23T13:21:54.398Z,36.10
2019-01-23T13:24:21.128Z,36.10
2019-01-23T13:26:47.840Z,35.80
2019-01-23T13:29:14.994Z,36.10
2019-01-23T13:31:41.654Z,35.80
2019-01-23T13:34:08.384Z,35.90
2019-01-23T13:36:35.419Z,35.60
2019-01-23T13:39:02.470Z,35.70
2019-01-23T13:41:29.210Z,35.80
2019-01-23T13:43:56.409Z,36.20
2019-01-23T13:46:23.565Z,35.90
2019-01-23T13:48:50.279Z,36.00
2019-01-23T13:51:16.930Z,35.60
2019-01-23T13:53:44.063Z,35.10
2019-01-23T13:56:10.724Z,34.50
2019-01-23T13:58:42.182Z,34.40
2019-01-23T14:01:08.972Z,34.40
2019-01-23T14:03:35.615Z,34.50
2019-01-23T14:06:02.335Z,34.70
2019-01-23T14:08:29.457Z,34.80
2019-01-23T14:10:56.164Z,34.70
2019-01-23T14:13:23.324Z,34.40
2019-01-23T14:15:50.452Z,33.80
2019-01-23T14:18:17.510Z,33.80
2019-01-23T14:20:44.233Z,34.10
2019-01-23T14:23:11.395Z,34.20
2019-01-23T14:25:38.568Z,34.40
2019-01-23T14:28:05.599Z,34.20
2019-01-23T14:30:33.061Z,34.50
2019-01-23T14:33:00.102Z,34.50
2019-01-23T14:35:26.831Z,34.10
2019-01-23T14:38:00.363Z,34.00
2019-01-23T14:40:22.782Z,33.60
2019-01-23T14:42:49.956Z,33.50
2019-01-23T14:45:17.179Z,33.80
2019-01-23T14:47:44.038Z,34.50
2019-01-23T14:50:11.201Z,35.20
2019-01-23T14:52:37.984Z,35.30
2019-01-23T14:55:05.093Z,35.70
2019-01-23T14:57:32.095Z,35.60
2019-01-23T14:59:59.273Z,35.00
2019-01-23T15:02:26.490Z,34.90
2019-01-23T15:04:53.773Z,34.70
2019-01-23T15:07:20.923Z,34.50
2019-01-23T15:09:47.970Z,34.60
2019-01-23T15:12:14.704Z,34.70
2019-01-23T15:14:41.755Z,34.70
2019-01-23T15:17:08.905Z,34.30
2019-01-23T15:19:36.066Z,34.10
2019-01-23T15:22:03.107Z,33.90
2019-01-23T15:24:30.153Z,34.10
2019-01-23T15:26:56.940Z,34.00
2019-01-23T15:29:24.043Z,33.50
2019-01-23T15:31:51.148Z,33.50
2019-01-23T15:34:17.912Z,34.00
2019-01-23T15:36:45.010Z,34.00
2019-01-23T15:39:11.658Z,33.80
2019-01-23T15:41:38.771Z,33.80
2019-01-23T15:44:05.568Z,34.00
2019-01-23T15:46:32.643Z,34.10
2019-01-23T15:48:59.710Z,33.50
2019-01-23T15:51:26.481Z,33.50
2019-01-23T15:53:53.171Z,34.10
2019-01-23T15:56:20.241Z,34.50
2019-01-23T15:58:46.933Z,34.70
2019-01-23T16:01:14.141Z,34.80
2019-01-23T16:03:41.321Z,34.40
2019-01-23T16:06:08.614Z,34.10
2019-01-23T16:08:35.808Z,33.80
2019-01-23T16:11:02.487Z,33.60
2019-01-23T16:13:29.708Z,33.50
2019-01-23T16:15:56.419Z,33.50
2019-01-23T16:18:23.466Z,33.60
2019-01-23T16:20:50.619Z,33.50
2019-01-23T16:23:18.131Z,33.40
2019-01-23T16:25:44.815Z,33.50
2019-01-23T16:28:12.436Z,33.50
2019-01-23T16:30:39.517Z,33.20
2019-01-23T16:33:06.158Z,33.10
2019-01-23T16:35:38.578Z,33.20
2019-01-23T16:38:01.688Z,33.50
2019-01-23T16:40:28.335Z,33.50
2019-01-23T16:42:55.487Z,33.50
2019-01-23T16:45:22.138Z,33.40
2019-01-23T16:47:49.272Z,33.30
2019-01-23T16:50:16.454Z,33.30
2019-01-23T16:52:43.091Z,33.10
2019-01-23T16:55:09.827Z,34.00
2019-01-23T16:57:36.925Z,34.40
2019-01-23T17:00:04.015Z,34.80
2019-01-23T17:02:30.997Z,34.60
2019-01-23T17:04:58.222Z,34.50
2019-01-23T17:07:25.345Z,34.20
2019-01-23T17:09:52.513Z,34.00
2019-01-23T17:12:19.173Z,34.10
2019-01-23T17:14:46.257Z,34.00
2019-01-23T17:17:13.344Z,34.30
2019-01-23T17:19:40.383Z,34.60
2019-01-23T17:22:07.564Z,34.50
2019-01-23T17:24:34.714Z,34.30
2019-01-23T17:27:01.855Z,34.00
2019-01-23T17:29:30.806Z,33.20
2019-01-23T17:31:57.368Z,33.20
2019-01-23T17:34:24.052Z,33.30
2019-01-23T17:36:50.798Z,33.10
2019-01-23T17:39:17.998Z,33.50
2019-01-23T17:41:45.062Z,33.30
2019-01-23T17:44:12.186Z,33.40
2019-01-23T17:46:39.232Z,33.50
2019-01-23T17:49:06.038Z,33.40
2019-01-23T17:51:33.152Z,33.50
2019-01-23T17:54:00.278Z,33.40
2019-01-23T17:56:27.422Z,33.90
2019-01-23T17:58:54.147Z,33.80
2019-01-23T18:01:21.234Z,33.80
2019-01-23T18:03:48.432Z,33.60
2019-01-23T18:06:15.221Z,33.40
2019-01-23T18:08:48.117Z,33.30
2019-01-23T18:11:10.692Z,33.10
2019-01-23T18:13:37.348Z,33.30
2019-01-23T18:16:05.990Z,33.20
2019-01-23T18:18:32.685Z,33.20
2019-01-23T18:20:59.984Z,33.90
2019-01-23T18:23:29.223Z,34.50
2019-01-23T18:25:56.149Z,34.10
2019-01-23T18:28:23.252Z,33.60
2019-01-23T18:30:50.471Z,33.80
2019-01-23T18:33:17.212Z,33.60
2019-01-23T18:35:44.904Z,32.90
2019-01-23T18:38:12.368Z,33.20
2019-01-23T18:40:39.079Z,33.20
2019-01-23T18:43:06.171Z,33.10
2019-01-23T18:45:34.331Z,33.20
2019-01-23T18:48:01.348Z,33.20
2019-01-23T18:50:28.500Z,32.90
2019-01-23T18:52:55.190Z,33.20
2019-01-23T18:55:22.361Z,33.20
2019-01-23T18:57:49.524Z,34.00
2019-01-23T19:00:16.206Z,33.10
2019-01-23T19:02:43.314Z,33.20
2019-01-23T19:05:10.817Z,33.10
2019-01-23T19:07:37.880Z,33.10
2019-01-23T19:10:04.518Z,33.10
2019-01-23T19:12:31.643Z,33.10
2019-01-23T19:14:58.757Z,33.20
2019-01-23T19:17:25.444Z,33.20
2019-01-23T19:19:52.198Z,33.10
2019-01-23T19:22:19.332Z,32.80
2019-01-23T19:24:46.378Z,33.30
2019-01-23T19:27:13.522Z,33.20
2019-01-23T19:29:40.209Z,33.20
2019-01-23T19:32:07.514Z,33.20
2019-01-23T19:34:34.669Z,33.50
2019-01-23T19:37:01.726Z,33.20
2019-01-23T19:39:28.420Z,33.00
2019-01-23T19:41:55.154Z,33.10
2019-01-23T19:44:22.345Z,33.00
2019-01-23T19:46:49.041Z,33.00
2019-01-23T19:49:16.287Z,33.00
2019-01-23T19:51:43.575Z,33.00
2019-01-23T19:54:10.284Z,32.90
2019-01-23T19:56:37.006Z,33.60
2019-01-23T19:59:03.743Z,33.40
2019-01-23T20:01:30.419Z,33.00
2019-01-23T20:03:57.080Z,33.00
2019-01-23T20:06:23.818Z,33.00
2019-01-23T20:08:50.544Z,33.00
2019-01-23T20:11:17.300Z,32.90
2019-01-23T20:13:43.948Z,33.00
2019-01-23T20:16:10.641Z,32.90
2019-01-23T20:18:37.387Z,33.00
2019-01-23T20:21:04.110Z,32.70
2019-01-23T20:23:30.821Z,33.00
2019-01-23T20:25:57.945Z,32.90
2019-01-23T20:28:24.646Z,32.50
2019-01-23T20:30:51.746Z,32.40
2019-01-23T20:33:18.909Z,32.60
2019-01-23T20:35:45.591Z,32.60
2019-01-23T20:38:12.777Z,32.50
2019-01-23T20:40:39.944Z,32.30
2019-01-23T20:43:06.673Z,32.80
2019-01-23T20:45:33.465Z,32.80
2019-01-23T20:48:00.550Z,32.90
2019-01-23T20:50:28.017Z,32.90
2019-01-23T20:52:54.947Z,32.80
2019-01-23T20:55:21.727Z,32.90
2019-01-23T20:57:55.497Z,33.10
2019-01-23T21:00:22.699Z,33.60
2019-01-23T21:02:49.810Z,33.50
2019-01-23T21:05:16.534Z,33.60
2019-01-23T21:07:44.031Z,33.40
2019-01-23T21:10:10.847Z,33.60
2019-01-23T21:12:37.898Z,33.80
2019-01-23T21:15:05.169Z,33.70
2019-01-23T21:17:31.897Z,33.50
2019-01-23T21:20:02.844Z,32.90
2019-01-23T21:22:29.543Z,32.60
2019-01-23T21:24:56.863Z,32.60
2019-01-23T21:27:23.698Z,32.50
2019-01-23T21:29:50.838Z,32.60
2019-01-23T21:32:18.312Z,32.90
2019-01-23T21:34:45.491Z,32.90
2019-01-23T21:37:12.681Z,33.00
2019-01-23T21:39:39.747Z,33.00
2019-01-23T21:42:06.399Z,32.90
2019-01-23T21:44:33.124Z,32.90
2019-01-23T21:47:00.250Z,32.90
2019-01-23T21:49:29.767Z,32.90
2019-01-23T21:52:01.036Z,32.70
2019-01-23T21:54:29.631Z,32.50
2019-01-23T21:57:01.971Z,32.10
2019-01-23T21:59:26.489Z,32.20
2019-01-23T22:01:53.616Z,32.30
2019-01-23T22:04:21.462Z,32.40
2019-01-23T22:06:48.664Z,32.20
2019-01-23T22:09:16.446Z,31.90
2019-01-23T22:11:43.954Z,31.80
2019-01-23T22:14:11.302Z,31.80
2019-01-23T22:16:38.466Z,31.70
2019-01-23T22:19:05.183Z,32.00
2019-01-23T22:21:32.743Z,32.10
2019-01-23T22:23:59.998Z,32.50
2019-01-23T22:26:27.047Z,32.80
2019-01-23T22:28:53.709Z,33.20
2019-01-23T22:31:20.854Z,32.80
2019-01-23T22:33:48.029Z,32.70
2019-01-23T22:36:14.737Z,32.60
2019-01-23T22:38:41.493Z,32.70
2019-01-23T22:41:08.614Z,32.90
2019-01-23T22:43:35.355Z,32.80
2019-01-23T22:46:02.407Z,33.40
2019-01-23T22:48:29.479Z,33.10
2019-01-23T22:50:56.624Z,33.90
2019-01-23T22:53:23.782Z,34.60
2019-01-23T22:55:50.928Z,34.60
2019-01-23T22:58:17.953Z,34.00
2019-01-23T23:00:45.143Z,34.00
2019-01-23T23:03:11.857Z,33.80
2019-01-23T23:05:39.008Z,33.60
2019-01-23T23:08:06.162Z,32.70
2019-01-23T23:10:32.882Z,33.50
2019-01-23T23:12:59.606Z,34.00
2019-01-23T23:15:26.683Z,33.90
2019-01-23T23:17:53.872Z,33.60
2019-01-23T23:20:20.583Z,32.80
2019-01-23T23:22:47.742Z,32.60
2019-01-23T23:25:14.397Z,32.30
2019-01-23T23:27:41.142Z,32.30
2019-01-23T23:30:07.859Z,32.30
2019-01-23T23:32:35.035Z,32.20
2019-01-23T23:35:02.154Z,32.20
2019-01-23T23:37:28.803Z,32.40
2019-01-23T23:39:55.922Z,32.70
2019-01-23T23:42:23.121Z,32.60
2019-01-23T23:44:50.241Z,32.70
2019-01-23T23:47:17.387Z,32.50
2019-01-23T23:49:44.043Z,32.70
2019-01-23T23:52:11.159Z,32.60
2019-01-23T23:54:39.016Z,32.70
2019-01-23T23:57:06.704Z,32.80
2019-01-23T23:59:34.518Z,32.70
